Latest Weather Observations for Hughenden

IDQ60801

Issued at 9:32 pm EST Friday 26 August 2016 (issued every 30 minutes, with the page automatically refreshed every 10 minutes)

About weather observations | Map of weather stations | Latest weather observations for QLD | Other Formats
Station Details ID: 030022 Name: HUGHENDEN AIRPORT Lat: -20.82 Lon: 144.23 Height: 316.4 m
Data from the previous 72 hours. | See also: Recent months at Hughenden
Date/Time
EST
Temp
°C
App
Temp
°C
Dew
Point
°C
Rel
Hum
%
Delta-T
°C
Wind Press
QNH
hPa
Press
MSL
hPa
Rain since
9am
mm
Dir  Spd
km/h
Gust
km/h
Spd
kts
Gust
kts
26/09:30pm 11.3 8.4 4.5 63 3.1 SSE 9 11 5 6 1021.3 1020.4 0.0
26/09:00pm 12.1 8.8 4.3 59 3.6 SSE 11 11 6 6 1021.1 1020.2 0.0
26/08:30pm 12.9 10.0 4.8 58 3.8 S 9 11 5 6 1020.9 1020.0 0.0
26/08:00pm 13.8 10.4 4.1 52 4.5 SSE 11 13 6 7 1020.5 1019.5 0.0
26/07:30pm 14.6 11.1 3.7 48 5.1 SSE 11 13 6 7 1020.1 1019.1 0.0
26/07:00pm 15.4 11.9 3.5 45 5.5 S 11 13 6 7 1019.6 1018.7 0.0
26/06:30pm 16.6 12.6 2.6 39 6.4 S 13 17 7 9 1019.1 1018.2 0.0
26/06:00pm 18.2 12.9 1.7 33 7.5 S 19 26 10 14 1018.7 1017.8 0.0
26/05:30pm 19.3 14.0 1.8 31 8.1 SSE 19 26 10 14 1018.1 1017.2 0.0
26/05:00pm 19.7 14.0 0.7 28 8.6 SSE 20 28 11 15 1018.0 1017.0 0.0
26/04:30pm 20.3 15.0 1.7 29 8.7 S 19 28 10 15 1017.8 1016.8 0.0
26/04:00pm 20.3 14.8 1.7 29 8.6 S 20 32 11 17 1017.7 1016.7 0.0
26/03:30pm 20.2 14.9 1.6 29 8.6 S 19 28 10 15 1017.5 1016.5 0.0
26/03:00pm 20.3 15.0 1.7 29 8.6 S 19 30 10 16 1017.7 1016.7 0.0
26/02:30pm 20.6 15.5 2.9 31 8.5 SSW 19 33 10 18 1017.8 1016.8 0.0
26/02:00pm 19.9 14.7 2.7 32 8.1 S 19 30 10 16 1018.0 1017.0 0.0
26/01:30pm 20.1 14.9 3.3 33 8.1 SSW 20 28 11 15 1018.2 1017.3 0.0
26/01:00pm 19.3 14.1 2.2 32 8.0 S 19 28 10 15 1018.5 1017.6 0.0
26/12:30pm 18.8 14.3 2.2 33 7.7 S 15 24 8 13 1019.0 1018.1 0.0
26/12:00pm 18.4 13.4 1.4 32 7.7 S 17 24 9 13 1019.2 1018.3 0.0
26/11:30am 18.0 13.1 1.9 34 7.4 S 17 26 9 14 1019.6 1018.7 0.0
26/11:00am 17.9 12.7 3.8 39 6.7 S 20 32 11 17 1020.1 1019.1 0.0
26/10:30am 17.7 12.3 2.5 36 7.0 S 20 28 11 15 1020.5 1019.5 0.0
26/10:00am 16.6 11.8 4.9 46 5.6 SSW 19 26 10 14 1020.6 1019.6 0.0
26/09:30am 15.8 12.5 6.3 53 4.7 S 13 17 7 9 1020.6 1019.6 0.0
26/09:00am 14.7 10.8 5.2 53 4.5 S 15 20 8 11 1020.5 1019.5 0.0
26/08:30am 13.6 9.7 5.3 57 4.0 S 15 20 8 11 1020.5 1019.5 0.0
26/08:00am 12.7 10.0 5.8 63 3.3 SSE 9 13 5 7 1020.3 1019.3 0.0
26/07:30am 11.0 8.5 6.7 75 2.1 SSW 9 11 5 6 1019.9 1019.0 0.0
26/07:00am 9.7 7.8 6.6 81 1.5 SW 6 7 3 4 1019.8 1018.9 0.0
26/06:30am 9.7 7.1 6.2 79 1.6 SSW 9 11 5 6 1019.3 1018.4 0.0
26/06:00am 10.1 7.3 7.0 81 1.5 SW 11 13 6 7 1019.0 1018.1 0.0
26/05:30am 10.7 10.1 7.6 81 1.5 CALM 0 0 0 0 1018.4 1017.5 0.0
26/05:00am 11.0 10.4 7.3 78 1.8 CALM 0 6 0 3 1018.2 1017.3 0.0
26/04:30am 11.3 9.5 7.8 79 1.7 SW 7 9 4 5 1018.1 1017.2 0.0
26/04:00am 12.0 11.6 8.1 77 1.9 CALM 0 0 0 0 1017.8 1016.8 0.0
26/03:30am 12.5 11.9 7.2 70 2.6 CALM 0 0 0 0 1017.8 1016.8 0.0
26/03:00am 12.8 10.9 6.8 67 2.9 SSE 6 7 3 4 1017.7 1016.7 0.0
26/02:30am 13.0 10.8 6.1 63 3.3 SSE 7 11 4 6 1017.8 1016.8 0.0
26/02:00am 13.5 10.9 6.1 61 3.6 SSE 9 13 5 7 1017.8 1016.8 0.0
26/01:30am 13.5 11.3 6.4 62 3.5 SSE 7 13 4 7 1017.8 1016.8 0.0
26/01:00am 13.4 10.9 6.5 63 3.4 SSE 9 13 5 7 1017.8 1016.8 0.0
26/12:30am 13.1 9.9 6.7 65 3.1 S 13 19 7 10 1017.8 1016.8 0.0
26/12:00am 12.8 9.2 6.8 67 2.9 SSE 15 22 8 12 1017.8 1016.8 0.0
 
Date/Time
EST
Temp
°C
App
Temp
°C
Dew
Point
°C
Rel
Hum
%
Delta-T
°C
Wind Press
QNH
hPa
Press
MSL
hPa
Rain since
9am
mm
Dir  Spd
km/h
Gust
km/h
Spd
kts
Gust
kts
25/11:30pm 13.1 9.5 6.9 66 3.0 SSE 15 20 8 11 1017.7 1016.7 0.0
25/11:00pm 13.6 9.3 7.2 65 3.2 S 19 24 10 13 1017.6 1016.6 0.0
25/10:30pm 14.3 10.1 7.4 63 3.5 S 19 26 10 14 1017.3 1016.3 0.0
25/10:00pm 14.7 11.2 8.6 67 3.1 S 17 22 9 12 1017.0 1016.0 0.0
25/09:30pm 15.1 12.2 9.5 69 2.9 S 15 20 8 11 1016.5 1015.6 0.0
25/09:00pm 14.8 12.8 10.2 74 2.4 S 11 11 6 6 1016.4 1015.5 0.0
25/08:30pm 15.3 13.8 10.5 73 2.6 S 9 11 5 6 1016.1 1015.2 0.0
25/08:00pm 15.8 14.4 11.0 73 2.6 SSW 9 11 5 6 1015.7 1014.8 0.0
25/07:30pm 16.8 15.8 11.1 69 3.1 S 7 9 4 5 1015.3 1014.3 0.0
25/07:00pm 17.7 17.4 11.3 66 3.5 SW 4 6 2 3 1015.0 1014.0 0.0
25/06:30pm 18.3 17.3 11.1 63 4.0 SSW 7 9 4 5 1014.8 1013.8 0.0
25/06:00pm 19.7 18.0 9.9 53 5.3 SW 9 13 5 7 1014.5 1013.5 0.0
25/05:30pm 20.5 18.5 10.3 52 5.6 WSW 11 15 6 8 1014.4 1013.4 0.0
25/05:00pm 20.1 18.0 9.7 51 5.6 WSW 11 15 6 8 1014.1 1013.1 0.0
25/04:30pm 20.0 17.8 9.3 50 5.8 W 11 15 6 8 1014.0 1013.0 0.0
25/04:00pm 21.0 18.9 9.9 49 6.1 WSW 11 15 6 8 1013.9 1012.9 0.0
25/03:30pm 20.9 19.5 9.5 48 6.2 SW 7 13 4 7 1013.7 1012.7 0.0
25/03:00pm 19.6 18.3 9.8 53 5.3 SSW 7 13 4 7 1013.8 1012.8 0.0
25/02:30pm 20.0 19.0 10.4 54 5.3 WSW 6 11 3 6 1014.0 1013.0 0.0
25/02:00pm 19.7 17.3 10.1 54 5.2 S 13 17 7 9 1014.4 1013.4 0.0
25/01:30pm 19.9 19.0 10.6 55 5.1 SSW 6 11 3 6 1014.6 1013.6 0.0
25/01:00pm 19.0 18.0 10.3 57 4.7 S 6 13 3 7 1014.8 1013.8 0.0
25/12:30pm 18.7 17.5 10.3 58 4.6 S 7 11 4 6 1015.0 1014.0 0.0
25/12:00pm 18.8 17.5 11.4 62 4.1 S 9 13 5 7 1015.3 1014.3 0.0
25/11:30am 18.0 16.5 10.4 61 4.1 SE 9 17 5 9 1015.8 1014.9 0.0
25/11:00am 17.5 15.2 10.6 64 3.7 SSE 13 20 7 11 1016.1 1015.2 0.0
25/10:30am 17.4 15.0 11.4 68 3.3 SSE 15 20 8 11 1016.3 1015.4 0.0
25/10:00am 16.6 14.2 11.3 71 2.9 SSE 15 20 8 11 1016.4 1015.5 0.0
25/09:30am 15.9 13.9 11.5 75 2.4 SE 13 19 7 10 1016.4 1015.5 0.0
25/09:00am 15.4 13.2 12.2 81 1.8 SSE 15 20 8 11 1016.0 1015.1 22.0
25/08:30am 14.7 12.9 12.0 84 1.5 S 13 15 7 8 1016.1 1015.2 22.0
25/08:00am 14.0 11.2 11.5 85 1.4 S 17 24 9 13 1015.9 1015.0 22.0
25/07:30am 13.6 10.4 11.1 85 1.3 S 19 26 10 14 1015.4 1014.5 22.0
25/07:00am 13.5 10.7 11.2 86 1.2 S 17 24 9 13 1015.2 1014.2 22.0
25/06:30am 13.6 11.9 11.1 85 1.3 SSE 11 15 6 8 1015.3 1014.3 22.0
25/06:00am 13.4 11.2 10.9 85 1.3 SSE 13 19 7 10 1015.0 1014.0 22.0
25/05:30am 13.8 10.9 11.0 83 1.5 S 17 20 9 11 1014.6 1013.6 22.0
25/05:00am 14.0 10.9 11.7 86 1.3 S 19 26 10 14 1014.1 1013.1 22.0
25/04:30am 14.3 11.0 11.6 84 1.5 S 20 30 11 16 1013.9 1012.9 22.0
25/04:00am 15.0 12.4 12.1 83 1.6 S 17 22 9 12 1014.2 1013.2 22.0
25/03:30am 15.4 14.7 13.2 87 1.2 SW 9 13 5 7 1014.3 1013.3 22.0
25/03:00am 15.5 14.8 13.2 86 1.3 SW 9 13 5 7 1014.6 1013.6 22.0
25/02:30am 15.9 15.4 13.9 88 1.1 WNW 9 11 5 6 1014.7 1013.7 22.0
25/02:00am 16.1 16.3 14.1 88 1.2 WNW 6 9 3 5 1014.6 1013.6 22.0
25/01:30am 16.2 16.2 14.2 88 1.2 W 7 9 4 5 1014.7 1013.7 22.0
25/01:00am 16.4 16.5 14.4 88 1.2 W 7 9 4 5 1014.9 1013.9 22.0
25/12:30am 16.6 16.8 14.6 88 1.2 WSW 7 9 4 5 1014.9 1013.9 22.0
25/12:00am 16.7 17.5 14.7 88 1.2 SW 4 6 2 3 1015.0 1014.0 22.0
 
Date/Time
EST
Temp
°C
App
Temp
°C
Dew
Point
°C
Rel
Hum
%
Delta-T
°C
Wind Press
QNH
hPa
Press
MSL
hPa
Rain since
9am
mm
Dir  Spd
km/h
Gust
km/h
Spd
kts
Gust
kts
24/11:30pm 16.6 16.9 14.4 87 1.3 SW 6 9 3 5 1015.0 1014.0 22.0
24/11:00pm 16.6 16.9 14.4 87 1.3 S 6 9 3 5 1015.0 1014.0 22.0
24/10:30pm 16.8 16.2 14.6 87 1.3 SSW 11 15 6 8 1014.8 1013.8 22.0
24/10:00pm 17.0 16.5 14.8 87 1.3 SW 11 17 6 9 1015.0 1014.0 22.0
24/09:30pm 17.1 16.6 14.9 87 1.3 SSW 11 15 6 8 1014.5 1013.5 21.8
24/09:00pm 17.3 17.3 15.3 88 1.2 S 9 13 5 7 1014.4 1013.4 21.4
24/08:30pm 17.3 16.9 15.3 88 1.2 SSW 11 15 6 8 1014.2 1013.2 20.4
24/08:00pm 17.3 16.2 15.3 88 1.2 S 15 20 8 11 1013.8 1012.8 19.4
24/07:30pm 17.6 15.8 15.4 87 1.3 SSW 19 28 10 15 1014.0 1013.0 18.0
24/07:00pm 18.1 16.3 15.9 87 1.3 SW 20 26 11 14 1012.9 1012.0 16.8
24/06:30pm 18.4 15.5 16.0 86 1.4 SW 26 35 14 19 1012.7 1011.8 16.2
24/06:00pm 19.5 18.4 17.3 87 1.4 SW 19 32 10 17 1012.0 1011.0 15.6
24/05:30pm 19.6 19.0 17.6 88 1.2 WSW 17 24 9 13 1011.6 1010.6 15.0
24/05:00pm 19.3 19.7 17.3 88 1.2 W 11 13 6 7 1011.0 1010.0 13.6
24/04:30pm 19.3 20.0 17.1 87 1.4 SW 9 13 5 7 1010.4 1009.4 10.0
24/04:00pm 19.4 20.5 17.0 86 1.5 NNW 7 9 4 5 1010.4 1009.4 8.6
24/03:30pm 19.4 19.8 17.2 87 1.4 W 11 17 6 9 1010.6 1009.6 5.6
24/03:00pm 19.6 18.7 16.8 84 1.7 WSW 17 24 9 13 1010.1 1009.1 3.8
24/02:30pm 21.1 21.4 17.9 82 2.0 WNW 13 15 7 8 1010.3 1009.3 2.6
24/02:00pm 21.2 22.1 18.4 84 1.8 W 11 13 6 7 1010.3 1009.3 2.6
24/01:30pm 20.7 21.2 18.3 86 1.5 WSW 13 15 7 8 1010.8 1009.8 2.4
24/01:00pm 20.5 19.9 17.5 83 1.9 WSW 17 22 9 12 1011.1 1010.1 1.8
24/12:30pm 22.3 21.5 17.0 72 3.3 WSW 17 20 9 11 1011.1 1010.1 0.0
24/12:00pm 22.5 21.7 17.2 72 3.3 SW 17 26 9 14 1011.4 1010.4 0.0
24/11:30am 21.9 20.6 17.3 75 2.9 SW 20 26 11 14 1012.3 1011.3 0.0
24/11:00am 20.5 16.6 16.9 80 2.2 WSW 33 46 18 25 1012.3 1011.3 0.0
24/10:55am 20.7 16.2 16.3 76 2.7 W 35 52 19 28 1012.3 1011.3 0.0
24/10:44am 22.2 19.0 18.2 78 2.5 W 32 50 17 27 1011.9 1010.9 0.0
24/10:34am 23.0 18.8 16.1 65 4.2 WNW 33 46 18 25 1011.9 1010.9 0.0
24/10:30am 24.9 21.0 15.5 56 5.8 NW 30 43 16 23 1011.6 1010.6 0.0
24/10:00am 26.3 22.1 14.7 48 7.1 NW 30 39 16 21 1011.8 1010.8 0.0
24/09:30am 26.0 21.5 14.8 50 6.8 NW 32 43 17 23 1011.9 1010.9 0.0
24/09:00am 25.4 21.6 14.8 52 6.4 NW 28 39 15 21 1012.1 1011.1 0.0
24/08:30am 24.5 20.8 15.1 55 5.7 NW 28 39 15 21 1012.1 1011.1 0.0
24/08:00am 23.2 21.1 15.3 61 4.8 NW 20 26 11 14 1011.9 1010.9 0.0
24/07:30am 20.8 21.0 14.7 68 3.6 N 7 9 4 5 1011.5 1010.5 0.0
24/07:00am 20.1 20.3 14.7 71 3.2 NE 7 9 4 5 1010.9 1009.9 0.0
24/06:30am 19.7 19.5 14.7 73 3.0 NNE 9 11 5 6 1010.4 1009.4 0.0
24/06:00am 18.8 20.1 14.1 74 2.7 CALM 0 0 0 0 1009.6 1008.6 0.0
24/05:30am 19.6 19.8 14.2 71 3.2 NE 6 7 3 4 1009.2 1008.2 0.0
24/05:00am 20.1 20.6 14.9 72 3.1 ENE 6 7 3 4 1008.5 1007.5 0.0
24/04:30am 20.2 21.8 14.8 71 3.2 CALM 0 0 0 0 1008.6 1007.6 0.0
24/04:00am 20.3 21.9 14.9 71 3.2 CALM 0 0 0 0 1008.7 1007.7 0.0
24/03:30am 20.1 21.7 14.9 72 3.1 CALM 0 0 0 0 1008.8 1007.8 0.0
24/03:00am 20.3 21.9 14.9 71 3.2 CALM 0 0 0 0 1009.0 1008.0 0.0
24/02:30am 20.7 22.3 15.0 70 3.4 CALM 0 0 0 0 1009.1 1008.1 0.0
24/02:00am 20.6 21.5 15.2 71 3.2 NNE 4 9 2 5 1009.3 1008.3 0.0
24/01:30am 20.6 22.3 15.2 71 3.2 CALM 0 0 0 0 1009.4 1008.4 0.0
24/01:00am 20.4 22.0 15.0 71 3.2 CALM 0 0 0 0 1009.6 1008.6 0.0
24/12:30am 20.6 21.1 14.9 70 3.4 ENE 6 7 3 4 1009.6 1008.6 0.0
24/12:00am 20.5 22.2 15.1 71 3.2 CALM 0 0 0 0 1009.8 1008.9 0.0
 
Date/Time
EST
Temp
°C
App
Temp
°C
Dew
Point
°C
Rel
Hum
%
Delta-T
°C
Wind Press
QNH
hPa
Press
MSL
hPa
Rain since
9am
mm
Dir  Spd
km/h
Gust
km/h
Spd
kts
Gust
kts
23/11:30pm 20.5 19.7 15.1 71 3.2 SE 13 15 7 8 1009.8 1008.9 0.0
23/11:00pm 20.7 19.5 15.0 70 3.4 SSE 15 20 8 11 1009.7 1008.7 0.0
23/10:30pm 21.2 18.6 14.8 67 3.8 S 22 32 12 17 1009.9 1009.0 0.0
23/10:00pm 21.4 19.2 15.0 67 3.8 S 20 28 11 15 1009.9 1009.0 0.0

Other Formats:

Comma delimited format used in spreadsheet applications
http://www.bom.gov.au/fwo/IDQ60801/IDQ60801.94343.axf

JavaScript Object Notation format (JSON) in row-major order
http://www.bom.gov.au/fwo/IDQ60801/IDQ60801.94343.json